Forside
METAR-TAF:

METAR-TAF

Lufthavne :

Ulan Bator, Mongoliet

Breddekreds: 47-55N, længdekreds: 106-52E, højde: 1306 m

Aktuelle vejr

Denne rapport blev lavet for 22 minutter siden, kl. 11:00 UTC
Vind 6 kt fra sydsydøst
Temperatur 1°C
Fugtighed 47%
Tryk 1023 hPa
Sigt 10 km eller mere
ingen skyer under 1500m og ingen cumulonimbus

METAR: ZMUB 171100Z 16003MPS CAVOK 01/M09 Q1023 NOSIG RMK QFE659.3 47

Tid: 19:22 (11:22 UTC)

Vejrudsigter

Denne rapport blev lavet for 6 timer og 42 minutter siden, kl. 04:40 UTC
Foreløbig gælder fra 17 på 06 UTC til 18 på 12 UTC
Vind 4 kt fra varierende retninger
Sigt 10 km eller mere
ingen skyer under 1500m og ingen cumulonimbus
ændring
fra 18 på 05 UTC til 18 på 07 UTC
Vind 10 kt fra syd
Nogle få skyer i en højde af 3300 ft
Spredte skyer i en højde af 10000 ft

TAF: ZMUB 170440Z 1706/1812 VRB02MPS CAVOK TX15/1707Z TNM07/1722Z BECMG 1805/1807 18005MPS FEW033 SCT100

Vejrobservationer og prognoser fra mere end 4000 lufthavne (METAR og TAF).

De gule og røde prikker repræsenterer de meteorologiske stationer.

Flyt musen over at se navnet på stationen.

Så klik over at se vejr observationer og prognoser.

At skifte det kort: Klik på de grønne knapper med et sort kors for at zoome ind; på den grønne knap med en bindestreg for at zoome ud; eller på de grønne pile for tilstødende kort.


METAR-TAF: